Time,TemperatureF,DewpointF,PressureIn,WindDirection,WindDirectionDegrees,WindSpeedMPH,WindSpeedGustMPH,Humidity,HourlyPrecipIn,Conditions,Clouds,dailyrainin,SoftwareType,DateUTC
2013-04-11 00:50:00,34.4,32.3,29.73,West,274,0.0,0.0,92,0.00,,,0.54,Wunderground v.1.15,2013-04-11 05:50:00,
2013-04-11 00:55:00,34.4,32.3,29.73,NW,309,0.0,0.0,92,0.00,,,0.54,Wunderground v.1.15,2013-04-11 05:55:00,
2013-04-11 01:00:00,34.3,32.2,29.73,NNW,335,0.0,0.0,92,0.00,,,0.54,Wunderground v.1.15,2013-04-11 06:00:00,
2013-04-11 01:05:00,34.3,32.2,29.72,West,280,0.0,0.0,92,0.00,,,0.00,Wunderground v.1.15,2013-04-11 06:05:00,
2013-04-11 01:15:00,34.1,32.0,29.72,WNW,295,0.0,0.0,92,0.00,,,0.00,Wunderground v.1.15,2013-04-11 06:15:00,
2013-04-11 01:25:00,34.1,32.0,29.70,WNW,299,0.0,0.0,92,0.00,,,0.00,Wunderground v.1.15,2013-04-11 06:25:00,
2013-04-11 01:30:00,34.1,32.0,29.70,NW,306,0.0,0.0,92,0.00,,,0.00,Wunderground v.1.15,2013-04-11 06:30:00,
2013-04-11 01:40:00,34.0,31.9,29.70,WNW,292,0.0,0.0,92,0.00,,,0.00,Wunderground v.1.15,2013-04-11 06:40:00,
2013-04-11 01:45:00,34.0,31.6,29.70,WNW,288,0.0,0.0,91,0.00,,,0.00,Wunderground v.1.15,2013-04-11 06:45:00,
2013-04-11 01:55:00,34.0,31.6,29.70,WNW,294,0.0,0.0,91,0.00,,,0.00,Wunderground v.1.15,2013-04-11 06:55:00,
2013-04-11 02:00:00,34.0,31.6,29.70,NW,306,0.0,0.0,91,0.00,,,0.00,Wunderground v.1.15,2013-04-11 07:00:00,
2013-04-11 02:10:00,33.8,31.5,29.69,WNW,289,0.0,0.0,91,0.00,,,0.00,Wunderground v.1.15,2013-04-11 07:10:00,
2013-04-11 02:20:00,33.8,31.5,29.69,WNW,302,0.0,0.0,91,0.00,,,0.00,Wunderground v.1.15,2013-04-11 07:20:00,
2013-04-11 02:30:00,33.8,31.5,29.69,WNW,284,0.0,0.0,91,0.00,,,0.00,Wunderground v.1.15,2013-04-11 07:30:00,
2013-04-11 02:40:00,33.7,31.4,29.70,WNW,288,0.0,0.0,91,0.00,,,0.00,Wunderground v.1.15,2013-04-11 07:40:00,
2013-04-11 02:50:00,33.7,31.1,29.70,WNW,298,0.0,0.0,90,0.00,,,0.00,Wunderground v.1.15,2013-04-11 07:50:00,
2013-04-11 03:00:00,33.7,31.1,29.70,WNW,285,0.0,0.0,90,0.00,,,0.00,Wunderground v.1.15,2013-04-11 08:00:00,
2013-04-11 03:10:00,33.5,30.6,29.68,WNW,287,0.0,0.0,89,0.00,,,0.00,Wunderground v.1.15,2013-04-11 08:10:00,
2013-04-11 03:15:00,33.4,30.5,29.68,WNW,288,0.0,0.0,89,0.00,,,0.00,Wunderground v.1.15,2013-04-11 08:15:00,
2013-04-11 06:20:00,32.4,28.7,29.65,WNW,289,0.0,0.0,86,0.00,,,0.00,Wunderground v.1.15,2013-04-11 11:20:00,
2013-04-11 06:30:00,32.4,28.4,29.65,West,272,0.0,0.0,85,0.00,,,0.00,Wunderground v.1.15,2013-04-11 11:30:00,
2013-04-11 06:40:00,32.4,28.4,29.65,NW,325,0.0,0.0,85,0.00,,,0.00,Wunderground v.1.15,2013-04-11 11:40:00,
2013-04-11 06:50:00,32.4,28.4,29.65,West,272,0.0,0.0,85,0.00,,,0.00,Wunderground v.1.15,2013-04-11 11:50:00,
2013-04-11 07:00:00,32.4,28.4,29.65,WSW,246,0.0,0.0,85,0.00,,,0.00,Wunderground v.1.15,2013-04-11 12:00:00,
2013-04-11 07:10:00,32.5,28.5,29.65,WSW,246,0.0,0.0,85,0.00,,,0.00,Wunderground v.1.15,2013-04-11 12:10:00,
2013-04-11 07:20:00,32.5,28.5,29.66,West,264,0.0,0.0,85,0.00,,,0.00,Wunderground v.1.15,2013-04-11 12:20:00,
2013-04-11 07:30:00,32.7,28.7,29.66,WSW,246,0.0,0.0,85,0.00,,,0.00,Wunderground v.1.15,2013-04-11 12:30:00,
2013-04-11 07:40:00,32.7,28.7,29.66,WSW,253,0.0,0.0,85,0.00,,,0.00,Wunderground v.1.15,2013-04-11 12:40:00,
2013-04-11 07:45:00,32.7,28.7,29.66,WSW,256,0.0,0.0,85,0.00,,,0.00,Wunderground v.1.15,2013-04-11 12:45:00,
2013-04-11 07:55:00,32.7,28.4,29.65,West,272,0.0,0.0,84,0.00,,,0.00,Wunderground v.1.15,2013-04-11 12:55:00,
2013-04-11 08:05:00,32.8,28.5,29.65,WSW,254,0.0,0.0,84,0.00,,,0.00,Wunderground v.1.15,2013-04-11 13:05:00,
2013-04-11 08:15:00,32.8,28.5,29.65,WSW,247,0.0,0.0,84,0.00,,,0.00,Wunderground v.1.15,2013-04-11 13:15:00,
2013-04-11 08:25:00,32.9,28.6,29.66,WSW,253,0.0,0.0,84,0.00,,,0.00,Wunderground v.1.15,2013-04-11 13:25:00,
2013-04-11 08:35:00,33.1,28.5,29.66,West,278,0.0,0.0,83,0.00,,,0.00,Wunderground v.1.15,2013-04-11 13:35:00,
2013-04-11 08:45:00,33.1,28.5,29.66,WNW,288,0.0,0.0,83,0.00,,,0.00,Wunderground v.1.15,2013-04-11 13:45:00,
2013-04-11 08:55:00,32.9,28.0,29.66,WNW,287,0.0,0.0,82,0.00,,,0.00,Wunderground v.1.15,2013-04-11 13:55:00,
2013-04-11 09:05:00,32.9,28.0,29.66,West,280,0.0,0.0,82,0.00,,,0.00,Wunderground v.1.15,2013-04-11 14:05:00,
2013-04-11 09:15:00,32.9,28.0,29.66,WSW,250,0.0,0.0,82,0.00,,,0.00,Wunderground v.1.15,2013-04-11 14:15:00,
2013-04-11 09:25:00,33.4,28.5,29.66,WSW,248,0.0,0.0,82,0.00,,,0.00,Wunderground v.1.15,2013-04-11 14:25:00,
2013-04-11 09:35:00,32.9,27.7,29.65,North,356,0.0,0.0,81,0.00,,,0.00,Wunderground v.1.15,2013-04-11 14:35:00,
2013-04-11 09:45:00,32.9,27.7,29.65,NW,320,0.0,0.0,81,0.00,,,0.00,Wunderground v.1.15,2013-04-11 14:45:00,
2013-04-11 10:55:00,32.7,27.2,29.65,WSW,258,0.0,0.0,80,0.00,,,0.00,Wunderground v.1.15,2013-04-11 15:55:00,
2013-04-11 11:05:00,32.7,26.9,29.65,WNW,287,0.0,0.0,79,0.00,,,0.00,Wunderground v.1.15,2013-04-11 16:05:00,
2013-04-11 11:15:00,32.7,26.9,29.65,WNW,285,0.0,0.0,79,0.00,,,0.00,Wunderground v.1.15,2013-04-11 16:15:00,
2013-04-11 11:25:00,32.7,26.9,29.65,West,278,0.0,0.0,79,0.00,,,0.00,Wunderground v.1.15,2013-04-11 16:25:00,
2013-04-11 11:35:00,32.8,27.0,29.64,West,272,0.0,0.0,79,0.00,,,0.00,Wunderground v.1.15,2013-04-11 16:35:00,
2013-04-11 11:45:00,32.9,27.1,29.64,West,274,0.0,0.0,79,0.00,,,0.00,Wunderground v.1.15,2013-04-11 16:45:00,
2013-04-11 11:55:00,33.1,27.3,29.65,WNW,285,0.0,0.0,79,0.00,,,0.00,Wunderground v.1.15,2013-04-11 16:55:00,
2013-04-11 12:05:00,33.2,27.4,29.66,West,278,0.0,0.0,79,0.00,,,0.00,Wunderground v.1.15,2013-04-11 17:05:00,
2013-04-11 12:15:00,33.1,27.0,29.66,WNW,287,0.0,0.0,78,0.00,,,0.00,Wunderground v.1.15,2013-04-11 17:15:00,
2013-04-11 12:25:00,33.1,27.0,29.66,WNW,284,0.0,0.0,78,0.00,,,0.00,Wunderground v.1.15,2013-04-11 17:25:00,
2013-04-11 12:30:00,33.2,27.4,29.66,North,354,0.0,0.0,79,0.00,,,0.00,Wunderground v.1.15,2013-04-11 17:30:00,
2013-04-11 12:40:00,33.4,27.0,29.66,West,274,0.0,0.0,77,0.00,,,0.00,Wunderground v.1.15,2013-04-11 17:40:00,
2013-04-11 12:50:00,33.7,26.9,29.66,West,265,0.0,0.0,76,0.00,,,0.00,Wunderground v.1.15,2013-04-11 17:50:00,
2013-04-11 13:00:00,34.3,27.2,29.66,North,352,0.0,0.0,75,0.00,,,0.00,Wunderground v.1.15,2013-04-11 18:00:00,
2013-04-11 13:10:00,34.1,27.0,29.64,West,278,0.0,0.0,75,0.00,,,0.00,Wunderground v.1.15,2013-04-11 18:10:00,
2013-04-11 13:20:00,34.1,27.0,29.65,WNW,284,0.0,0.0,75,0.00,,,0.00,Wunderground v.1.15,2013-04-11 18:20:00,
2013-04-11 13:30:00,34.4,27.0,29.65,West,278,0.0,0.0,74,0.00,,,0.00,Wunderground v.1.15,2013-04-11 18:30:00,
2013-04-11 13:40:00,34.7,27.3,29.64,WNW,282,0.0,0.0,74,0.00,,,0.00,Wunderground v.1.15,2013-04-11 18:40:00,
2013-04-11 13:50:00,35.0,27.5,29.64,West,261,0.0,0.0,74,0.00,,,0.00,Wunderground v.1.15,2013-04-11 18:50:00,
2013-04-11 14:00:00,35.3,27.5,29.64,West,265,0.0,0.0,73,0.00,,,0.00,Wunderground v.1.15,2013-04-11 19:00:00,
2013-04-11 14:10:00,35.5,27.7,29.63,West,275,0.0,0.0,73,0.00,,,0.00,Wunderground v.1.15,2013-04-11 19:10:00,
2013-04-11 14:15:00,35.5,27.7,29.63,WSW,244,0.0,0.0,73,0.00,,,0.00,Wunderground v.1.15,2013-04-11 19:15:00,
2013-04-11 14:25:00,35.8,28.0,29.64,West,280,0.0,0.0,73,0.00,,,0.00,Wunderground v.1.15,2013-04-11 19:25:00,
2013-04-11 14:35:00,35.9,28.1,29.64,West,268,0.0,0.0,73,0.00,,,0.00,Wunderground v.1.15,2013-04-11 19:35:00,
2013-04-11 14:40:00,36.2,28.0,29.64,WSW,244,0.0,0.0,72,0.00,,,0.00,Wunderground v.1.15,2013-04-11 19:40:00,
2013-04-11 14:50:00,36.3,28.1,29.64,West,271,0.0,0.0,72,0.00,,,0.00,Wunderground v.1.15,2013-04-11 19:50:00,
2013-04-11 15:00:00,36.3,28.1,29.64,West,275,0.0,0.0,72,0.00,,,0.00,Wunderground v.1.15,2013-04-11 20:00:00,